Řízení letového provozu České republiky  
Aktualizace dat:  13.11.2019 19:20:26 UTC English version
   METEO Zobrazení stránky:  13.11.2019 19:21:00 UTC  
vysvětlivky
METAR EDDB 131850Z 19005KT CAVOK 04/03 Q1003 NOSIG=
METAR EDDC 131850Z 20005KT CAVOK 03/02 Q1004 NOSIG=
METAR EDDE 131850Z 23010KT 9999 FEW020 03/00 Q1003 NOSIG=
METAR EDDF 131850Z 19007KT 9999 FEW016 BKN020 05/03 Q1005 NOSIG=
METAR EDDM 131850Z 20006KT CAVOK 03/02 Q1006 NOSIG=
METAR EDDN 131850Z 23003KT 200V260 9999 FEW035 05/02 Q1005 NOSIG=
METAR EDDP 131850Z 22007KT CAVOK 05/01 Q1003 NOSIG=
METAR EDDT 131850Z 20004KT CAVOK 05/02 Q1003 NOSIG=
METAR EDQM 131850Z 21009KT 9999 BKN018 OVC049 02/00 Q1003=
METAR EPBY 131900Z 30008KT 8000 -RA SCT003 OVC005 04/04 Q1002=
METAR EPGD 131900Z 31007KT 5000 -RA BR OVC003 05/05 Q1001=
METAR EPKK 131900Z 24005KT 210V280 8000 BKN005 07/06 Q1001=
METAR EPKT 131900Z 36007KT 310V020 9999 -RA SCT003 BKN036 05/05 Q1001 =
METAR EPLL 131900Z 26010KT 140V300 0450 R25/1300N -RA FG VV001 07/07 Q1001=
METAR EPPO 131900Z 31005KT 9999 RA BKN006 BKN029 03/02 Q1004=
METAR EPRZ 131900Z 08007KT CAVOK 12/10 Q1003=
METAR EPWA 131900Z 12010KT CAVOK 12/10 Q1001 NOSIG=
METAR EPWR 131900Z 31010KT 9999 -RA BKN007 BKN010 02/02 Q1004=
METAR LHBP 131900Z 26005KT 9999 FEW047 SCT080 BKN200 11/09 Q1003 NOSIG=
METAR LHSM 131845Z AUTO 01010KT 340V040 9999 -DZ FEW011 OVC026 05/04 Q1006=
METAR LKBC 131900Z AUTO 22003KT 9000 FEW017 SCT052 OVC094 02/01 Q1005=
METAR LKCV 131900Z 24005KT 9999 -RA BKN014 OVC040 02/02 Q1005 NOSIG RMK GRN GRN=
METAR LKKB 131900Z 20006KT 9999 -RA FEW006 SCT012 OVC042 03/03 Q1005 NOSIG RMK BLU BLU=
METAR LKKU NIL
METAR LKKV 131900Z VRB02KT CAVOK 00/M00 Q1004 RMK REG QNH 1000=
SPECI LKLN 131907Z AUTO 00000KT 4100 ///////// 01/01 Q1006=
METAR LKMT 131900Z 06004KT 9999 -RA OVC011 04/03 Q1004 NOSIG RMK REG QNH 1000=
METAR LKNA 131900Z 29012KT 9999 -RA SCT007 OVC070 02/02 Q1004 NOSIG RMK BLU BLU=
METAR LKPD 131900Z 25009KT 8000 -RA BKN007 OVC014 02/02 Q1005 NOSIG RMK GRN GRN=
METAR LKPJ 131900Z AUTO 27006KT 9999 -RA OVC023 ///// Q////=
SPECI LKPR 131906Z 21009KT 9999 FEW005 SCT009 02/02 Q1005 RMK REG QNH 1000=
METAR COR LKTB 131900Z 29011KT 9999 -RA FEW012 04/02 Q1004 NOSIG RMK REG QNH 1000=
METAR LKVO NIL
METAR LOWI 131850Z 26004KT 9000 SCT005 BKN009 01/00 Q1007 R08/29//95 NOSIG=
METAR LOWL 131850Z AUTO 26004KT 9999 -RA FEW006 BKN010 03/02 Q1008 TEMPO SCT008 BKN015=
METAR LOWS 131850Z 14006KT 9999 FEW001 BKN050 01/01 Q1007 NOSIG=
METAR LOWW 131850Z 30013KT 9999 FEW017 BKN070 04/02 Q1006 NOSIG=
METAR LZIB 131900Z 28014KT 9999 SCT012 BKN047 05/02 Q1005 NOSIG=
METAR LZKZ 131900Z 20011KT CAVOK 16/10 Q1004=
METAR LZMC 131900Z 26004KT 8000 -RA SCT006 BKN016 OVC060 04/03 Q1006=
METAR LZPP 131900Z 29010KT 9999 OVC011 05/02 Q1005=
METAR LZSL 131900Z 15005KT 110V190 9999 OVC026 14/10 Q1002=
METAR LZTT 131900Z 21006KT 150V260 9999 -RA SCT023 OVC033 11/08 Q1003=
SPECI LZZI 131917Z 29006KT 9999 -RA BKN033 OVC058 06/05 Q1002 RERA=